Hartford, Connecticut
Traffic Map
Current Weather Conditions
Hartford, Connecticut
Few Clouds
Few Clouds
-3°
Feels Like: -7°
Wind Chill: -7° Ceiling: Unl
Heat Index: -3° Visibility: 10mi
Dew Point: -11° Wind: 8mph
Humidity: 56% Direction: 350° (N)
Pressure: 30.23in Gusts: 0mph
Raw Report DataKHFD 100253Z 35007KT 10SM FEW048 M03/M11 A3023 RMK AO2 SLP235 T10281106 51008
Traffic Incident Summary
Active as of:
Severity:
Category:
InformationThere was an issue retrieving the traffic information for this location. Please try a different location or try again shortly.
Advertisements
Track Severe Weather on mobile